sensor_id;sensor_type;location;lat;lon;timestamp;P1;durP1;ratioP1;P2;durP2;ratioP2
11865;SDS011;5992;52.744;6.898;2023-01-25T00:01:10;19.20;;;15.27;;
11865;SDS011;5992;52.744;6.898;2023-01-25T00:04:22;20.50;;;15.30;;
11865;SDS011;5992;52.744;6.898;2023-01-25T00:07:34;19.80;;;14.65;;
11865;SDS011;5992;52.744;6.898;2023-01-25T00:10:50;19.80;;;15.03;;
11865;SDS011;5992;52.744;6.898;2023-01-25T00:14:03;19.27;;;15.03;;
11865;SDS011;5992;52.744;6.898;2023-01-25T00:17:27;20.73;;;14.87;;
11865;SDS011;5992;52.744;6.898;2023-01-25T00:20:27;17.80;;;13.90;;
11865;SDS011;5992;52.744;6.898;2023-01-25T00:23:39;20.17;;;14.47;;
11865;SDS011;5992;52.744;6.898;2023-01-25T00:26:41;21.40;;;15.35;;
11865;SDS011;5992;52.744;6.898;2023-01-25T00:30:05;18.07;;;14.00;;
11865;SDS011;5992;52.744;6.898;2023-01-25T00:33:17;18.23;;;14.60;;
11865;SDS011;5992;52.744;6.898;2023-01-25T00:36:37;17.20;;;14.47;;
11865;SDS011;5992;52.744;6.898;2023-01-25T00:39:57;17.83;;;13.53;;
11865;SDS011;5992;52.744;6.898;2023-01-25T00:43:10;19.75;;;15.00;;
11865;SDS011;5992;52.744;6.898;2023-01-25T00:46:23;18.85;;;13.75;;
11865;SDS011;5992;52.744;6.898;2023-01-25T00:49:35;19.20;;;15.50;;
11865;SDS011;5992;52.744;6.898;2023-01-25T00:52:47;18.70;;;14.47;;
11865;SDS011;5992;52.744;6.898;2023-01-25T00:56:00;17.83;;;14.00;;
11865;SDS011;5992;52.744;6.898;2023-01-25T00:59:01;18.70;;;14.23;;
11865;SDS011;5992;52.744;6.898;2023-01-25T01:02:25;18.60;;;14.60;;
11865;SDS011;5992;52.744;6.898;2023-01-25T01:05:25;18.25;;;14.65;;
11865;SDS011;5992;52.744;6.898;2023-01-25T01:08:39;17.25;;;14.10;;
11865;SDS011;5992;52.744;6.898;2023-01-25T01:11:51;18.90;;;14.17;;
11865;SDS011;5992;52.744;6.898;2023-01-25T01:15:05;17.30;;;13.40;;
11865;SDS011;5992;52.744;6.898;2023-01-25T01:18:17;21.23;;;16.00;;
11865;SDS011;5992;52.744;6.898;2023-01-25T01:21:29;17.60;;;14.30;;
11865;SDS011;5992;52.744;6.898;2023-01-25T01:24:46;20.23;;;14.17;;
11865;SDS011;5992;52.744;6.898;2023-01-25T01:28:08;17.50;;;13.33;;
11865;SDS011;5992;52.744;6.898;2023-01-25T01:31:22;17.37;;;13.37;;
11865;SDS011;5992;52.744;6.898;2023-01-25T01:34:46;23.30;;;17.13;;
11865;SDS011;5992;52.744;6.898;2023-01-25T01:37:46;21.33;;;15.60;;
11865;SDS011;5992;52.744;6.898;2023-01-25T01:41:01;20.25;;;15.50;;
11865;SDS011;5992;52.744;6.898;2023-01-25T01:44:17;19.67;;;15.23;;
11865;SDS011;5992;52.744;6.898;2023-01-25T01:47:41;21.43;;;15.80;;
11865;SDS011;5992;52.744;6.898;2023-01-25T01:51:09;23.17;;;15.73;;
11865;SDS011;5992;52.744;6.898;2023-01-25T01:54:33;22.57;;;16.03;;
11865;SDS011;5992;52.744;6.898;2023-01-25T01:57:57;20.70;;;15.10;;
11865;SDS011;5992;52.744;6.898;2023-01-25T02:01:21;22.97;;;15.73;;
11865;SDS011;5992;52.744;6.898;2023-01-25T02:04:47;21.10;;;15.70;;
11865;SDS011;5992;52.744;6.898;2023-01-25T02:08:15;21.80;;;15.50;;
11865;SDS011;5992;52.744;6.898;2023-01-25T02:11:39;26.77;;;19.37;;
11865;SDS011;5992;52.744;6.898;2023-01-25T02:14:52;21.90;;;16.20;;
11865;SDS011;5992;52.744;6.898;2023-01-25T02:18:15;21.13;;;15.70;;
11865;SDS011;5992;52.744;6.898;2023-01-25T02:21:42;24.50;;;17.50;;
11865;SDS011;5992;52.744;6.898;2023-01-25T02:25:06;21.83;;;15.67;;
11865;SDS011;5992;52.744;6.898;2023-01-25T02:28:34;19.55;;;14.90;;
11865;SDS011;5992;52.744;6.898;2023-01-25T02:31:45;23.43;;;17.03;;
11865;SDS011;5992;52.744;6.898;2023-01-25T02:35:11;21.47;;;16.60;;
11865;SDS011;5992;52.744;6.898;2023-01-25T02:38:36;23.57;;;17.00;;
11865;SDS011;5992;52.744;6.898;2023-01-25T02:42:00;21.40;;;16.20;;
11865;SDS011;5992;52.744;6.898;2023-01-25T02:45:26;20.85;;;15.30;;
11865;SDS011;5992;52.744;6.898;2023-01-25T02:48:49;21.40;;;15.60;;
11865;SDS011;5992;52.744;6.898;2023-01-25T02:51:53;21.40;;;15.60;;
11865;SDS011;5992;52.744;6.898;2023-01-25T02:55:19;23.17;;;16.17;;
11865;SDS011;5992;52.744;6.898;2023-01-25T02:58:35;24.13;;;16.80;;
11865;SDS011;5992;52.744;6.898;2023-01-25T03:02:00;19.65;;;15.60;;
11865;SDS011;5992;52.744;6.898;2023-01-25T03:05:00;23.63;;;16.97;;
11865;SDS011;5992;52.744;6.898;2023-01-25T03:08:12;23.07;;;16.60;;
11865;SDS011;5992;52.744;6.898;2023-01-25T03:11:24;22.97;;;16.53;;
11865;SDS011;5992;52.744;6.898;2023-01-25T03:14:38;20.73;;;16.17;;
11865;SDS011;5992;52.744;6.898;2023-01-25T03:17:51;18.30;;;13.93;;
11865;SDS011;5992;52.744;6.898;2023-01-25T03:21:19;23.13;;;17.33;;
11865;SDS011;5992;52.744;6.898;2023-01-25T03:24:42;21.83;;;15.93;;
11865;SDS011;5992;52.744;6.898;2023-01-25T03:27:54;22.27;;;17.03;;
11865;SDS011;5992;52.744;6.898;2023-01-25T03:31:09;20.47;;;15.90;;
11865;SDS011;5992;52.744;6.898;2023-01-25T03:34:34;19.83;;;15.70;;
11865;SDS011;5992;52.744;6.898;2023-01-25T03:37:46;23.23;;;16.70;;
11865;SDS011;5992;52.744;6.898;2023-01-25T03:40:58;23.77;;;17.20;;
11865;SDS011;5992;52.744;6.898;2023-01-25T03:44:25;21.57;;;16.37;;
11865;SDS011;5992;52.744;6.898;2023-01-25T03:47:52;22.50;;;16.40;;
11865;SDS011;5992;52.744;6.898;2023-01-25T03:51:18;22.25;;;15.85;;
11865;SDS011;5992;52.744;6.898;2023-01-25T03:54:34;23.07;;;16.30;;
11865;SDS011;5992;52.744;6.898;2023-01-25T03:57:46;27.83;;;20.03;;
11865;SDS011;5992;52.744;6.898;2023-01-25T04:01:03;20.23;;;15.67;;
11865;SDS011;5992;52.744;6.898;2023-01-25T04:04:29;21.50;;;16.67;;
11865;SDS011;5992;52.744;6.898;2023-01-25T04:07:53;24.77;;;17.50;;
11865;SDS011;5992;52.744;6.898;2023-01-25T04:11:07;22.70;;;16.90;;
11865;SDS011;5992;52.744;6.898;2023-01-25T04:14:29;22.93;;;16.47;;
11865;SDS011;5992;52.744;6.898;2023-01-25T04:17:41;22.47;;;16.67;;
11865;SDS011;5992;52.744;6.898;2023-01-25T04:20:43;23.87;;;17.83;;
11865;SDS011;5992;52.744;6.898;2023-01-25T04:24:07;22.05;;;15.95;;
11865;SDS011;5992;52.744;6.898;2023-01-25T04:27:07;23.65;;;17.40;;
11865;SDS011;5992;52.744;6.898;2023-01-25T04:30:20;24.17;;;16.57;;
11865;SDS011;5992;52.744;6.898;2023-01-25T04:33:32;22.43;;;15.73;;
11865;SDS011;5992;52.744;6.898;2023-01-25T04:36:58;21.03;;;16.17;;
11865;SDS011;5992;52.744;6.898;2023-01-25T04:40:22;23.40;;;17.37;;
11865;SDS011;5992;52.744;6.898;2023-01-25T04:43:35;24.70;;;17.47;;
11865;SDS011;5992;52.744;6.898;2023-01-25T04:46:47;21.95;;;16.10;;
11865;SDS011;5992;52.744;6.898;2023-01-25T04:49:59;23.55;;;16.65;;
11865;SDS011;5992;52.744;6.898;2023-01-25T04:53:13;22.83;;;16.33;;
11865;SDS011;5992;52.744;6.898;2023-01-25T04:56:37;24.70;;;16.80;;
11865;SDS011;5992;52.744;6.898;2023-01-25T04:59:49;21.60;;;16.30;;
11865;SDS011;5992;52.744;6.898;2023-01-25T05:03:02;22.23;;;16.27;;
11865;SDS011;5992;52.744;6.898;2023-01-25T05:06:25;22.33;;;16.60;;
11865;SDS011;5992;52.744;6.898;2023-01-25T05:09:40;22.00;;;15.90;;
11865;SDS011;5992;52.744;6.898;2023-01-25T05:13:05;23.97;;;16.73;;
11865;SDS011;5992;52.744;6.898;2023-01-25T05:16:29;21.65;;;15.75;;
11865;SDS011;5992;52.744;6.898;2023-01-25T05:19:41;21.00;;;15.85;;
11865;SDS011;5992;52.744;6.898;2023-01-25T05:22:54;22.83;;;15.87;;
11865;SDS011;5992;52.744;6.898;2023-01-25T05:26:10;20.87;;;15.30;;
11865;SDS011;5992;52.744;6.898;2023-01-25T05:29:43;22.95;;;15.60;;
11865;SDS011;5992;52.744;6.898;2023-01-25T05:33:07;20.53;;;15.10;;
11865;SDS011;5992;52.744;6.898;2023-01-25T05:36:20;20.73;;;15.47;;
11865;SDS011;5992;52.744;6.898;2023-01-25T05:39:32;20.57;;;15.30;;
11865;SDS011;5992;52.744;6.898;2023-01-25T05:42:58;20.37;;;15.20;;
11865;SDS011;5992;52.744;6.898;2023-01-25T05:46:23;20.47;;;14.77;;
11865;SDS011;5992;52.744;6.898;2023-01-25T05:49:36;22.85;;;15.35;;
11865;SDS011;5992;52.744;6.898;2023-01-25T05:52:49;19.40;;;14.85;;
11865;SDS011;5992;52.744;6.898;2023-01-25T05:56:13;21.50;;;15.60;;
11865;SDS011;5992;52.744;6.898;2023-01-25T05:59:26;21.87;;;15.43;;
11865;SDS011;5992;52.744;6.898;2023-01-25T06:02:47;21.20;;;15.85;;
11865;SDS011;5992;52.744;6.898;2023-01-25T06:05:59;22.27;;;15.80;;
11865;SDS011;5992;52.744;6.898;2023-01-25T06:09:23;20.97;;;15.37;;
11865;SDS011;5992;52.744;6.898;2023-01-25T06:12:47;22.40;;;16.37;;
11865;SDS011;5992;52.744;6.898;2023-01-25T06:16:00;20.13;;;14.57;;
11865;SDS011;5992;52.744;6.898;2023-01-25T06:19:25;22.23;;;14.97;;
11865;SDS011;5992;52.744;6.898;2023-01-25T06:22:37;19.10;;;14.13;;
11865;SDS011;5992;52.744;6.898;2023-01-25T06:25:49;20.10;;;14.37;;
11865;SDS011;5992;52.744;6.898;2023-01-25T06:29:03;20.10;;;14.50;;
11865;SDS011;5992;52.744;6.898;2023-01-25T06:32:31;22.93;;;15.90;;
11865;SDS011;5992;52.744;6.898;2023-01-25T06:35:44;19.13;;;13.87;;
11865;SDS011;5992;52.744;6.898;2023-01-25T06:38:59;19.07;;;14.97;;
11865;SDS011;5992;52.744;6.898;2023-01-25T06:42:11;20.23;;;14.87;;
11865;SDS011;5992;52.744;6.898;2023-01-25T06:45:23;20.57;;;15.57;;
11865;SDS011;5992;52.744;6.898;2023-01-25T06:48:36;20.35;;;14.90;;
11865;SDS011;5992;52.744;6.898;2023-01-25T06:52:01;19.73;;;13.93;;
11865;SDS011;5992;52.744;6.898;2023-01-25T06:55:13;22.10;;;16.27;;
11865;SDS011;5992;52.744;6.898;2023-01-25T06:58:28;18.15;;;14.10;;
11865;SDS011;5992;52.744;6.898;2023-01-25T07:01:39;20.50;;;14.83;;
11865;SDS011;5992;52.744;6.898;2023-01-25T07:04:52;22.40;;;14.93;;
11865;SDS011;5992;52.744;6.898;2023-01-25T07:08:04;19.80;;;14.30;;
11865;SDS011;5992;52.744;6.898;2023-01-25T07:11:28;20.63;;;15.03;;
11865;SDS011;5992;52.744;6.898;2023-01-25T07:14:40;20.23;;;14.33;;
11865;SDS011;5992;52.744;6.898;2023-01-25T07:17:52;18.83;;;13.97;;
11865;SDS011;5992;52.744;6.898;2023-01-25T07:21:09;18.90;;;13.70;;
11865;SDS011;5992;52.744;6.898;2023-01-25T07:24:37;19.20;;;14.60;;
11865;SDS011;5992;52.744;6.898;2023-01-25T07:27:37;18.37;;;13.83;;
11865;SDS011;5992;52.744;6.898;2023-01-25T07:30:49;21.95;;;14.95;;
11865;SDS011;5992;52.744;6.898;2023-01-25T07:33:49;19.30;;;13.87;;
11865;SDS011;5992;52.744;6.898;2023-01-25T07:37:14;18.40;;;14.37;;
11865;SDS011;5992;52.744;6.898;2023-01-25T07:40:27;17.87;;;13.30;;
11865;SDS011;5992;52.744;6.898;2023-01-25T07:43:39;18.60;;;13.40;;
11865;SDS011;5992;52.744;6.898;2023-01-25T07:46:51;17.95;;;13.15;;
11865;SDS011;5992;52.744;6.898;2023-01-25T07:50:16;19.20;;;13.05;;
11865;SDS011;5992;52.744;6.898;2023-01-25T07:53:17;18.85;;;13.50;;
11865;SDS011;5992;52.744;6.898;2023-01-25T07:56:42;21.33;;;13.60;;
11865;SDS011;5992;52.744;6.898;2023-01-25T07:59:42;19.20;;;13.00;;
11865;SDS011;5992;52.744;6.898;2023-01-25T08:02:48;16.90;;;12.97;;
11865;SDS011;5992;52.744;6.898;2023-01-25T08:06:13;18.00;;;12.70;;
11865;SDS011;5992;52.744;6.898;2023-01-25T08:09:15;18.25;;;13.50;;
11865;SDS011;5992;52.744;6.898;2023-01-25T08:12:40;17.80;;;12.75;;
11865;SDS011;5992;52.744;6.898;2023-01-25T08:15:52;17.10;;;12.07;;
11865;SDS011;5992;52.744;6.898;2023-01-25T08:19:15;17.17;;;12.30;;
11865;SDS011;5992;52.744;6.898;2023-01-25T08:22:15;16.17;;;12.73;;
11865;SDS011;5992;52.744;6.898;2023-01-25T08:25:40;17.50;;;12.63;;
11865;SDS011;5992;52.744;6.898;2023-01-25T08:28:53;18.15;;;13.05;;
11865;SDS011;5992;52.744;6.898;2023-01-25T08:32:17;14.75;;;11.45;;
11865;SDS011;5992;52.744;6.898;2023-01-25T08:35:17;14.57;;;11.60;;
11865;SDS011;5992;52.744;6.898;2023-01-25T08:38:29;15.50;;;11.90;;
11865;SDS011;5992;52.744;6.898;2023-01-25T08:41:43;16.15;;;12.00;;
11865;SDS011;5992;52.744;6.898;2023-01-25T08:45:07;15.07;;;11.80;;
11865;SDS011;5992;52.744;6.898;2023-01-25T08:48:22;14.30;;;11.17;;
11865;SDS011;5992;52.744;6.898;2023-01-25T08:51:40;16.77;;;12.50;;
11865;SDS011;5992;52.744;6.898;2023-01-25T08:54:52;16.03;;;12.17;;
11865;SDS011;5992;52.744;6.898;2023-01-25T08:58:06;14.73;;;11.27;;
11865;SDS011;5992;52.744;6.898;2023-01-25T09:01:18;15.47;;;11.40;;
11865;SDS011;5992;52.744;6.898;2023-01-25T09:04:30;15.90;;;12.27;;
11865;SDS011;5992;52.744;6.898;2023-01-25T09:07:30;17.33;;;13.40;;
11865;SDS011;5992;52.744;6.898;2023-01-25T09:10:43;21.15;;;13.60;;
11865;SDS011;5992;52.744;6.898;2023-01-25T09:13:45;18.67;;;13.07;;
11865;SDS011;5992;52.744;6.898;2023-01-25T09:17:09;18.15;;;12.20;;
11865;SDS011;5992;52.744;6.898;2023-01-25T09:20:12;16.90;;;12.17;;
11865;SDS011;5992;52.744;6.898;2023-01-25T09:23:24;17.37;;;11.90;;
11865;SDS011;5992;52.744;6.898;2023-01-25T09:26:26;17.35;;;12.95;;
11865;SDS011;5992;52.744;6.898;2023-01-25T09:29:44;15.70;;;12.27;;
11865;SDS011;5992;52.744;6.898;2023-01-25T09:33:08;17.40;;;12.10;;
11865;SDS011;5992;52.744;6.898;2023-01-25T09:36:20;15.80;;;11.57;;
11865;SDS011;5992;52.744;6.898;2023-01-25T09:39:20;16.67;;;12.50;;
11865;SDS011;5992;52.744;6.898;2023-01-25T09:42:38;17.17;;;13.07;;
11865;SDS011;5992;52.744;6.898;2023-01-25T09:45:52;18.05;;;13.35;;
11865;SDS011;5992;52.744;6.898;2023-01-25T09:49:20;16.05;;;11.80;;
11865;SDS011;5992;52.744;6.898;2023-01-25T09:52:37;18.37;;;12.37;;
11865;SDS011;5992;52.744;6.898;2023-01-25T09:56:00;15.43;;;11.90;;
11865;SDS011;5992;52.744;6.898;2023-01-25T09:59:11;17.70;;;12.43;;
11865;SDS011;5992;52.744;6.898;2023-01-25T10:02:39;15.85;;;12.50;;
11865;SDS011;5992;52.744;6.898;2023-01-25T10:06:01;16.27;;;11.80;;
11865;SDS011;5992;52.744;6.898;2023-01-25T10:09:16;16.80;;;11.95;;
11865;SDS011;5992;52.744;6.898;2023-01-25T10:12:40;15.90;;;12.30;;
11865;SDS011;5992;52.744;6.898;2023-01-25T10:15:54;17.10;;;12.53;;
11865;SDS011;5992;52.744;6.898;2023-01-25T10:19:19;17.33;;;13.20;;
11865;SDS011;5992;52.744;6.898;2023-01-25T10:22:33;17.80;;;12.97;;
11865;SDS011;5992;52.744;6.898;2023-01-25T10:25:58;17.70;;;12.60;;
11865;SDS011;5992;52.744;6.898;2023-01-25T10:29:10;16.35;;;11.70;;
11865;SDS011;5992;52.744;6.898;2023-01-25T10:32:38;16.87;;;12.47;;
11865;SDS011;5992;52.744;6.898;2023-01-25T10:39:15;19.03;;;13.60;;
11865;SDS011;5992;52.744;6.898;2023-01-25T10:42:43;18.75;;;13.05;;
11865;SDS011;5992;52.744;6.898;2023-01-25T10:45:53;17.95;;;13.00;;
11865;SDS011;5992;52.744;6.898;2023-01-25T10:49:11;17.93;;;12.77;;
11865;SDS011;5992;52.744;6.898;2023-01-25T10:52:24;17.30;;;12.80;;
11865;SDS011;5992;52.744;6.898;2023-01-25T10:55:55;16.20;;;12.83;;
11865;SDS011;5992;52.744;6.898;2023-01-25T10:59:12;16.70;;;12.10;;
11865;SDS011;5992;52.744;6.898;2023-01-25T11:02:43;19.27;;;13.10;;
11865;SDS011;5992;52.744;6.898;2023-01-25T11:05:55;17.40;;;12.10;;
11865;SDS011;5992;52.744;6.898;2023-01-25T11:09:30;17.10;;;12.35;;
11865;SDS011;5992;52.744;6.898;2023-01-25T11:12:43;16.90;;;12.85;;
11865;SDS011;5992;52.744;6.898;2023-01-25T11:16:16;15.63;;;11.63;;
11865;SDS011;5992;52.744;6.898;2023-01-25T11:19:31;18.00;;;12.30;;
11865;SDS011;5992;52.744;6.898;2023-01-25T11:22:58;19.33;;;12.80;;
11865;SDS011;5992;52.744;6.898;2023-01-25T11:26:09;17.30;;;12.43;;
11865;SDS011;5992;52.744;6.898;2023-01-25T11:29:34;18.05;;;12.25;;
11865;SDS011;5992;52.744;6.898;2023-01-25T11:32:47;19.63;;;12.13;;
11865;SDS011;5992;52.744;6.898;2023-01-25T11:36:21;16.17;;;11.70;;
11865;SDS011;5992;52.744;6.898;2023-01-25T11:39:39;15.90;;;12.20;;
11865;SDS011;5992;52.744;6.898;2023-01-25T11:43:04;16.30;;;11.83;;
11865;SDS011;5992;52.744;6.898;2023-01-25T11:49:47;19.60;;;12.53;;
11865;SDS011;5992;52.744;6.898;2023-01-25T11:53:01;14.65;;;11.50;;
11865;SDS011;5992;52.744;6.898;2023-01-25T11:56:26;17.03;;;11.33;;
11865;SDS011;5992;52.744;6.898;2023-01-25T12:03:06;18.00;;;13.40;;
11865;SDS011;5992;52.744;6.898;2023-01-25T12:06:20;15.57;;;11.73;;
11865;SDS011;5992;52.744;6.898;2023-01-25T12:13:08;16.85;;;12.10;;
11865;SDS011;5992;52.744;6.898;2023-01-25T12:16:36;16.40;;;12.85;;
11865;SDS011;5992;52.744;6.898;2023-01-25T12:19:58;18.53;;;13.50;;
11865;SDS011;5992;52.744;6.898;2023-01-25T12:23:28;14.97;;;10.17;;
11865;SDS011;5992;52.744;6.898;2023-01-25T12:26:40;16.05;;;11.25;;
11865;SDS011;5992;52.744;6.898;2023-01-25T12:30:09;17.40;;;12.90;;
11865;SDS011;5992;52.744;6.898;2023-01-25T12:33:19;18.65;;;12.05;;
11865;SDS011;5992;52.744;6.898;2023-01-25T12:36:43;17.27;;;12.43;;
11865;SDS011;5992;52.744;6.898;2023-01-25T12:39:57;16.07;;;11.47;;
11865;SDS011;5992;52.744;6.898;2023-01-25T12:43:22;17.40;;;11.63;;
11865;SDS011;5992;52.744;6.898;2023-01-25T12:46:36;17.70;;;12.60;;
11865;SDS011;5992;52.744;6.898;2023-01-25T12:49:59;16.37;;;11.63;;
11865;SDS011;5992;52.744;6.898;2023-01-25T12:53:12;16.25;;;11.60;;
11865;SDS011;5992;52.744;6.898;2023-01-25T12:56:36;17.93;;;12.50;;
11865;SDS011;5992;52.744;6.898;2023-01-25T12:59:50;16.93;;;11.90;;
11865;SDS011;5992;52.744;6.898;2023-01-25T13:03:20;20.37;;;13.07;;
11865;SDS011;5992;52.744;6.898;2023-01-25T13:06:34;17.20;;;11.80;;
11865;SDS011;5992;52.744;6.898;2023-01-25T13:09:59;15.95;;;11.90;;
11865;SDS011;5992;52.744;6.898;2023-01-25T13:13:19;17.03;;;11.87;;
11865;SDS011;5992;52.744;6.898;2023-01-25T13:16:43;16.75;;;11.90;;
11865;SDS011;5992;52.744;6.898;2023-01-25T13:19:58;16.93;;;11.87;;
11865;SDS011;5992;52.744;6.898;2023-01-25T13:23:28;16.77;;;11.97;;
11865;SDS011;5992;52.744;6.898;2023-01-25T13:26:44;18.30;;;12.00;;
11865;SDS011;5992;52.744;6.898;2023-01-25T13:30:26;15.90;;;11.60;;
11865;SDS011;5992;52.744;6.898;2023-01-25T13:33:40;16.35;;;11.45;;
11865;SDS011;5992;52.744;6.898;2023-01-25T13:36:53;15.60;;;11.50;;
11865;SDS011;5992;52.744;6.898;2023-01-25T13:39:56;15.77;;;11.30;;
11865;SDS011;5992;52.744;6.898;2023-01-25T13:43:20;18.83;;;12.10;;
11865;SDS011;5992;52.744;6.898;2023-01-25T13:46:33;18.90;;;11.85;;
11865;SDS011;5992;52.744;6.898;2023-01-25T13:49:59;16.45;;;12.05;;
11865;SDS011;5992;52.744;6.898;2023-01-25T13:53:17;19.57;;;12.23;;
11865;SDS011;5992;52.744;6.898;2023-01-25T13:56:45;17.30;;;11.57;;
11865;SDS011;5992;52.744;6.898;2023-01-25T13:59:45;15.67;;;11.50;;
11865;SDS011;5992;52.744;6.898;2023-01-25T14:03:11;19.07;;;12.53;;
11865;SDS011;5992;52.744;6.898;2023-01-25T14:06:23;15.43;;;10.73;;
11865;SDS011;5992;52.744;6.898;2023-01-25T14:09:47;17.93;;;11.43;;
11865;SDS011;5992;52.744;6.898;2023-01-25T14:12:59;16.25;;;11.80;;
11865;SDS011;5992;52.744;6.898;2023-01-25T14:16:12;17.10;;;11.50;;
11865;SDS011;5992;52.744;6.898;2023-01-25T14:19:20;18.13;;;12.27;;
11865;SDS011;5992;52.744;6.898;2023-01-25T14:22:47;15.97;;;10.87;;
11865;SDS011;5992;52.744;6.898;2023-01-25T14:25:59;15.50;;;11.47;;
11865;SDS011;5992;52.744;6.898;2023-01-25T14:29:16;16.73;;;11.80;;
11865;SDS011;5992;52.744;6.898;2023-01-25T14:32:27;16.80;;;11.73;;
11865;SDS011;5992;52.744;6.898;2023-01-25T14:35:47;18.70;;;12.05;;
11865;SDS011;5992;52.744;6.898;2023-01-25T14:38:59;17.67;;;11.43;;
11865;SDS011;5992;52.744;6.898;2023-01-25T14:42:11;18.20;;;11.90;;
11865;SDS011;5992;52.744;6.898;2023-01-25T14:45:23;15.10;;;11.17;;
11865;SDS011;5992;52.744;6.898;2023-01-25T14:48:47;17.50;;;11.15;;
11865;SDS011;5992;52.744;6.898;2023-01-25T14:52:02;20.05;;;12.15;;
11865;SDS011;5992;52.744;6.898;2023-01-25T14:55:26;17.55;;;11.30;;
11865;SDS011;5992;52.744;6.898;2023-01-25T14:58:38;16.73;;;11.33;;
11865;SDS011;5992;52.744;6.898;2023-01-25T15:02:03;16.97;;;11.30;;
11865;SDS011;5992;52.744;6.898;2023-01-25T15:05:17;17.33;;;12.00;;
11865;SDS011;5992;52.744;6.898;2023-01-25T15:08:46;16.35;;;11.65;;
11865;SDS011;5992;52.744;6.898;2023-01-25T15:11:59;16.30;;;10.95;;
11865;SDS011;5992;52.744;6.898;2023-01-25T15:15:23;15.25;;;10.75;;
11865;SDS011;5992;52.744;6.898;2023-01-25T15:18:44;16.33;;;11.10;;
11865;SDS011;5992;52.744;6.898;2023-01-25T15:22:08;16.43;;;11.07;;
11865;SDS011;5992;52.744;6.898;2023-01-25T15:25:22;16.37;;;10.90;;
11865;SDS011;5992;52.744;6.898;2023-01-25T15:28:46;16.77;;;11.33;;
11865;SDS011;5992;52.744;6.898;2023-01-25T15:31:47;19.87;;;13.00;;
11865;SDS011;5992;52.744;6.898;2023-01-25T15:35:12;18.40;;;11.83;;
11865;SDS011;5992;52.744;6.898;2023-01-25T15:38:25;18.47;;;10.97;;
11865;SDS011;5992;52.744;6.898;2023-01-25T15:41:40;15.60;;;10.67;;
11865;SDS011;5992;52.744;6.898;2023-01-25T15:44:49;16.50;;;11.23;;
11865;SDS011;5992;52.744;6.898;2023-01-25T15:48:09;18.43;;;12.53;;
11865;SDS011;5992;52.744;6.898;2023-01-25T15:51:20;16.80;;;11.20;;
11865;SDS011;5992;52.744;6.898;2023-01-25T15:54:45;19.20;;;11.63;;
11865;SDS011;5992;52.744;6.898;2023-01-25T15:57:59;15.95;;;10.80;;
11865;SDS011;5992;52.744;6.898;2023-01-25T16:01:24;20.45;;;12.25;;
11865;SDS011;5992;52.744;6.898;2023-01-25T16:04:47;19.70;;;12.43;;
11865;SDS011;5992;52.744;6.898;2023-01-25T16:07:48;18.93;;;12.20;;
11865;SDS011;5992;52.744;6.898;2023-01-25T16:11:01;18.80;;;11.50;;
11865;SDS011;5992;52.744;6.898;2023-01-25T16:17:18;17.65;;;11.90;;
11865;SDS011;5992;52.744;6.898;2023-01-25T16:20:30;18.10;;;11.43;;
11865;SDS011;5992;52.744;6.898;2023-01-25T16:23:42;18.85;;;11.35;;
11865;SDS011;5992;52.744;6.898;2023-01-25T16:26:42;20.00;;;12.43;;
11865;SDS011;5992;52.744;6.898;2023-01-25T16:30:11;18.27;;;11.87;;
11865;SDS011;5992;52.744;6.898;2023-01-25T16:33:24;17.60;;;11.97;;
11865;SDS011;5992;52.744;6.898;2023-01-25T16:36:49;19.23;;;12.80;;
11865;SDS011;5992;52.744;6.898;2023-01-25T16:40:01;19.03;;;11.83;;
11865;SDS011;5992;52.744;6.898;2023-01-25T16:43:26;21.50;;;12.53;;
11865;SDS011;5992;52.744;6.898;2023-01-25T16:46:27;20.27;;;12.90;;
11865;SDS011;5992;52.744;6.898;2023-01-25T16:49:40;16.17;;;11.07;;
11865;SDS011;5992;52.744;6.898;2023-01-25T16:52:53;18.93;;;11.97;;
11865;SDS011;5992;52.744;6.898;2023-01-25T16:56:06;18.50;;;12.17;;
11865;SDS011;5992;52.744;6.898;2023-01-25T16:59:06;22.00;;;13.10;;
11865;SDS011;5992;52.744;6.898;2023-01-25T17:02:18;19.40;;;11.97;;
11865;SDS011;5992;52.744;6.898;2023-01-25T17:05:19;21.20;;;12.93;;
11865;SDS011;5992;52.744;6.898;2023-01-25T17:08:45;23.65;;;12.45;;
11865;SDS011;5992;52.744;6.898;2023-01-25T17:11:57;21.13;;;13.40;;
11865;SDS011;5992;52.744;6.898;2023-01-25T17:15:11;22.67;;;13.27;;
11865;SDS011;5992;52.744;6.898;2023-01-25T17:18:23;19.35;;;12.30;;
11865;SDS011;5992;52.744;6.898;2023-01-25T17:21:36;21.30;;;12.57;;
11865;SDS011;5992;52.744;6.898;2023-01-25T17:24:49;21.10;;;12.70;;
11865;SDS011;5992;52.744;6.898;2023-01-25T17:28:02;18.95;;;12.05;;
11865;SDS011;5992;52.744;6.898;2023-01-25T17:31:02;22.35;;;13.70;;
11865;SDS011;5992;52.744;6.898;2023-01-25T17:34:26;24.67;;;14.50;;
11865;SDS011;5992;52.744;6.898;2023-01-25T17:37:27;20.50;;;12.20;;
11865;SDS011;5992;52.744;6.898;2023-01-25T17:40:51;22.45;;;13.50;;
11865;SDS011;5992;52.744;6.898;2023-01-25T17:43:51;19.13;;;12.57;;
11865;SDS011;5992;52.744;6.898;2023-01-25T17:47:08;25.20;;;14.93;;
11865;SDS011;5992;52.744;6.898;2023-01-25T17:50:08;23.75;;;13.60;;
11865;SDS011;5992;52.744;6.898;2023-01-25T17:53:26;24.73;;;13.53;;
11865;SDS011;5992;52.744;6.898;2023-01-25T17:56:42;24.80;;;14.40;;
11865;SDS011;5992;52.744;6.898;2023-01-25T18:00:07;25.75;;;14.25;;
11865;SDS011;5992;52.744;6.898;2023-01-25T18:03:22;23.33;;;14.60;;
11865;SDS011;5992;52.744;6.898;2023-01-25T18:06:34;26.87;;;15.17;;
11865;SDS011;5992;52.744;6.898;2023-01-25T18:09:59;28.30;;;15.77;;
11865;SDS011;5992;52.744;6.898;2023-01-25T18:13:11;25.80;;;15.20;;
11865;SDS011;5992;52.744;6.898;2023-01-25T18:16:24;27.00;;;15.27;;
11865;SDS011;5992;52.744;6.898;2023-01-25T18:19:35;28.55;;;16.10;;
11865;SDS011;5992;52.744;6.898;2023-01-25T18:22:47;29.43;;;15.47;;
11865;SDS011;5992;52.744;6.898;2023-01-25T18:25:48;30.10;;;17.13;;
11865;SDS011;5992;52.744;6.898;2023-01-25T18:29:24;28.55;;;15.60;;
11865;SDS011;5992;52.744;6.898;2023-01-25T18:32:31;32.20;;;17.07;;
11865;SDS011;5992;52.744;6.898;2023-01-25T18:35:45;32.63;;;17.73;;
11865;SDS011;5992;52.744;6.898;2023-01-25T18:38:58;24.37;;;14.93;;
11865;SDS011;5992;52.744;6.898;2023-01-25T18:42:12;24.23;;;14.23;;
11865;SDS011;5992;52.744;6.898;2023-01-25T18:45:25;29.40;;;16.27;;
11865;SDS011;5992;52.744;6.898;2023-01-25T18:48:37;28.83;;;15.67;;
11865;SDS011;5992;52.744;6.898;2023-01-25T18:51:37;33.57;;;17.43;;
11865;SDS011;5992;52.744;6.898;2023-01-25T18:54:50;29.50;;;15.43;;
11865;SDS011;5992;52.744;6.898;2023-01-25T18:58:03;30.47;;;17.00;;
11865;SDS011;5992;52.744;6.898;2023-01-25T19:01:29;34.73;;;18.83;;
11865;SDS011;5992;52.744;6.898;2023-01-25T19:04:29;32.25;;;16.40;;
11865;SDS011;5992;52.744;6.898;2023-01-25T19:07:41;26.10;;;15.83;;
11865;SDS011;5992;52.744;6.898;2023-01-25T19:10:41;30.60;;;15.93;;
11865;SDS011;5992;52.744;6.898;2023-01-25T19:13:54;31.85;;;16.90;;
11865;SDS011;5992;52.744;6.898;2023-01-25T19:17:07;30.95;;;16.05;;
11865;SDS011;5992;52.744;6.898;2023-01-25T19:20:20;35.35;;;17.35;;
11865;SDS011;5992;52.744;6.898;2023-01-25T19:23:20;33.40;;;17.30;;
11865;SDS011;5992;52.744;6.898;2023-01-25T19:26:32;28.05;;;15.30;;
11865;SDS011;5992;52.744;6.898;2023-01-25T19:29:33;33.80;;;17.60;;
11865;SDS011;5992;52.744;6.898;2023-01-25T19:32:58;31.43;;;16.53;;
11865;SDS011;5992;52.744;6.898;2023-01-25T19:35:58;35.03;;;17.47;;
11865;SDS011;5992;52.744;6.898;2023-01-25T19:39:23;33.50;;;18.20;;